sensor_id;sensor_type;location;lat;lon;timestamp;P1;durP1;ratioP1;P2;durP2;ratioP2
18084;SDS011;9169;44.492;11.372;2023-03-03T00:01:05;34.77;;;27.87;;
18084;SDS011;9169;44.492;11.372;2023-03-03T00:03:34;35.20;;;27.20;;
18084;SDS011;9169;44.492;11.372;2023-03-03T00:06:04;37.73;;;28.70;;
18084;SDS011;9169;44.492;11.372;2023-03-03T00:08:37;33.83;;;27.30;;
18084;SDS011;9169;44.492;11.372;2023-03-03T00:11:09;34.40;;;28.80;;
18084;SDS011;9169;44.492;11.372;2023-03-03T00:13:40;37.50;;;27.53;;
18084;SDS011;9169;44.492;11.372;2023-03-03T00:16:13;36.07;;;29.03;;
18084;SDS011;9169;44.492;11.372;2023-03-03T00:18:44;37.17;;;28.13;;
18084;SDS011;9169;44.492;11.372;2023-03-03T00:21:20;32.13;;;27.23;;
18084;SDS011;9169;44.492;11.372;2023-03-03T00:26:44;34.00;;;27.63;;
18084;SDS011;9169;44.492;11.372;2023-03-03T00:29:26;37.10;;;28.10;;
18084;SDS011;9169;44.492;11.372;2023-03-03T00:31:59;37.50;;;28.30;;
18084;SDS011;9169;44.492;11.372;2023-03-03T00:34:43;33.93;;;27.90;;
18084;SDS011;9169;44.492;11.372;2023-03-03T00:37:29;36.93;;;28.00;;
18084;SDS011;9169;44.492;11.372;2023-03-03T00:40:14;37.93;;;28.67;;
18084;SDS011;9169;44.492;11.372;2023-03-03T00:42:50;36.03;;;27.30;;
18084;SDS011;9169;44.492;11.372;2023-03-03T00:45:25;36.13;;;26.90;;
18084;SDS011;9169;44.492;11.372;2023-03-03T00:47:56;33.87;;;26.17;;
18084;SDS011;9169;44.492;11.372;2023-03-03T00:50:36;35.20;;;26.50;;
18084;SDS011;9169;44.492;11.372;2023-03-03T00:53:10;32.63;;;25.73;;
18084;SDS011;9169;44.492;11.372;2023-03-03T00:55:42;34.40;;;27.00;;
18084;SDS011;9169;44.492;11.372;2023-03-03T00:58:12;35.97;;;27.73;;
18084;SDS011;9169;44.492;11.372;2023-03-03T01:00:43;30.93;;;25.73;;
18084;SDS011;9169;44.492;11.372;2023-03-03T01:03:14;35.10;;;27.50;;
18084;SDS011;9169;44.492;11.372;2023-03-03T01:05:44;34.30;;;26.50;;
18084;SDS011;9169;44.492;11.372;2023-03-03T01:08:14;39.83;;;25.60;;
18084;SDS011;9169;44.492;11.372;2023-03-03T01:10:44;31.30;;;26.33;;
18084;SDS011;9169;44.492;11.372;2023-03-03T01:13:16;33.53;;;26.17;;
18084;SDS011;9169;44.492;11.372;2023-03-03T01:15:45;33.80;;;26.97;;
18084;SDS011;9169;44.492;11.372;2023-03-03T01:18:14;35.60;;;25.53;;
18084;SDS011;9169;44.492;11.372;2023-03-03T01:20:43;34.57;;;27.30;;
18084;SDS011;9169;44.492;11.372;2023-03-03T01:23:12;31.50;;;26.40;;
18084;SDS011;9169;44.492;11.372;2023-03-03T01:25:42;33.53;;;25.83;;
18084;SDS011;9169;44.492;11.372;2023-03-03T01:28:10;31.17;;;26.17;;
18084;SDS011;9169;44.492;11.372;2023-03-03T01:30:38;35.03;;;27.40;;
18084;SDS011;9169;44.492;11.372;2023-03-03T01:33:07;31.43;;;25.60;;
18084;SDS011;9169;44.492;11.372;2023-03-03T01:35:35;32.43;;;25.30;;
18084;SDS011;9169;44.492;11.372;2023-03-03T01:38:06;32.27;;;26.30;;
18084;SDS011;9169;44.492;11.372;2023-03-03T01:40:34;38.43;;;27.53;;
18084;SDS011;9169;44.492;11.372;2023-03-03T01:43:04;32.83;;;25.83;;
18084;SDS011;9169;44.492;11.372;2023-03-03T01:45:41;31.77;;;24.90;;
18084;SDS011;9169;44.492;11.372;2023-03-03T01:48:27;34.90;;;26.30;;
18084;SDS011;9169;44.492;11.372;2023-03-03T01:50:59;31.70;;;25.53;;
18084;SDS011;9169;44.492;11.372;2023-03-03T01:53:32;34.00;;;25.20;;
18084;SDS011;9169;44.492;11.372;2023-03-03T01:56:03;35.50;;;26.47;;
18084;SDS011;9169;44.492;11.372;2023-03-03T01:58:40;34.77;;;25.70;;
18084;SDS011;9169;44.492;11.372;2023-03-03T02:01:14;37.30;;;25.70;;
18084;SDS011;9169;44.492;11.372;2023-03-03T02:03:46;31.37;;;25.77;;
18084;SDS011;9169;44.492;11.372;2023-03-03T02:06:16;34.70;;;26.03;;
18084;SDS011;9169;44.492;11.372;2023-03-03T02:08:47;32.37;;;25.57;;
18084;SDS011;9169;44.492;11.372;2023-03-03T02:11:20;34.77;;;26.40;;
18084;SDS011;9169;44.492;11.372;2023-03-03T02:13:50;34.90;;;26.03;;
18084;SDS011;9169;44.492;11.372;2023-03-03T02:16:19;36.20;;;26.50;;
18084;SDS011;9169;44.492;11.372;2023-03-03T02:18:47;31.30;;;26.90;;
18084;SDS011;9169;44.492;11.372;2023-03-03T02:21:17;33.33;;;26.10;;
18084;SDS011;9169;44.492;11.372;2023-03-03T02:23:48;32.27;;;25.97;;
18084;SDS011;9169;44.492;11.372;2023-03-03T02:26:22;30.97;;;25.40;;
18084;SDS011;9169;44.492;11.372;2023-03-03T02:28:57;34.53;;;25.37;;
18084;SDS011;9169;44.492;11.372;2023-03-03T02:31:28;32.23;;;25.77;;
18084;SDS011;9169;44.492;11.372;2023-03-03T02:33:58;31.73;;;24.50;;
18084;SDS011;9169;44.492;11.372;2023-03-03T02:36:28;35.93;;;26.33;;
18084;SDS011;9169;44.492;11.372;2023-03-03T02:38:58;33.60;;;26.20;;
18084;SDS011;9169;44.492;11.372;2023-03-03T02:41:34;33.33;;;25.93;;
18084;SDS011;9169;44.492;11.372;2023-03-03T02:44:06;33.30;;;24.60;;
18084;SDS011;9169;44.492;11.372;2023-03-03T02:46:36;34.23;;;25.13;;
18084;SDS011;9169;44.492;11.372;2023-03-03T02:49:07;34.00;;;25.63;;
18084;SDS011;9169;44.492;11.372;2023-03-03T02:51:36;33.10;;;25.97;;
18084;SDS011;9169;44.492;11.372;2023-03-03T02:54:06;29.33;;;25.23;;
18084;SDS011;9169;44.492;11.372;2023-03-03T02:56:36;34.17;;;25.80;;
18084;SDS011;9169;44.492;11.372;2023-03-03T02:59:05;32.00;;;25.30;;
18084;SDS011;9169;44.492;11.372;2023-03-03T03:01:39;32.80;;;25.20;;
18084;SDS011;9169;44.492;11.372;2023-03-03T03:04:13;33.87;;;25.30;;
18084;SDS011;9169;44.492;11.372;2023-03-03T03:06:45;30.53;;;25.27;;
18084;SDS011;9169;44.492;11.372;2023-03-03T03:09:15;29.80;;;23.37;;
18084;SDS011;9169;44.492;11.372;2023-03-03T03:11:46;30.50;;;24.23;;
18084;SDS011;9169;44.492;11.372;2023-03-03T03:14:18;28.37;;;23.57;;
18084;SDS011;9169;44.492;11.372;2023-03-03T03:16:47;31.37;;;23.93;;
18084;SDS011;9169;44.492;11.372;2023-03-03T03:19:15;27.23;;;22.70;;
18084;SDS011;9169;44.492;11.372;2023-03-03T03:21:44;30.70;;;25.03;;
18084;SDS011;9169;44.492;11.372;2023-03-03T03:24:12;31.10;;;24.47;;
18084;SDS011;9169;44.492;11.372;2023-03-03T03:26:47;31.67;;;24.07;;
18084;SDS011;9169;44.492;11.372;2023-03-03T03:29:16;31.93;;;24.50;;
18084;SDS011;9169;44.492;11.372;2023-03-03T03:31:44;29.70;;;23.43;;
18084;SDS011;9169;44.492;11.372;2023-03-03T03:34:13;31.77;;;23.53;;
18084;SDS011;9169;44.492;11.372;2023-03-03T03:36:43;34.23;;;24.33;;
18084;SDS011;9169;44.492;11.372;2023-03-03T03:39:14;30.47;;;24.17;;
18084;SDS011;9169;44.492;11.372;2023-03-03T03:41:45;29.57;;;23.87;;
18084;SDS011;9169;44.492;11.372;2023-03-03T03:44:15;29.43;;;23.80;;
18084;SDS011;9169;44.492;11.372;2023-03-03T03:46:43;26.60;;;22.17;;
18084;SDS011;9169;44.492;11.372;2023-03-03T03:49:12;33.07;;;23.90;;
18084;SDS011;9169;44.492;11.372;2023-03-03T03:51:41;29.63;;;22.83;;
18084;SDS011;9169;44.492;11.372;2023-03-03T03:54:13;29.47;;;23.10;;
18084;SDS011;9169;44.492;11.372;2023-03-03T03:56:42;29.27;;;22.17;;
18084;SDS011;9169;44.492;11.372;2023-03-03T03:59:12;25.57;;;21.70;;
18084;SDS011;9169;44.492;11.372;2023-03-03T04:01:40;30.27;;;20.93;;
18084;SDS011;9169;44.492;11.372;2023-03-03T04:04:08;30.43;;;22.20;;
18084;SDS011;9169;44.492;11.372;2023-03-03T04:06:38;28.60;;;23.20;;
18084;SDS011;9169;44.492;11.372;2023-03-03T04:09:06;25.87;;;21.27;;
18084;SDS011;9169;44.492;11.372;2023-03-03T04:11:35;31.53;;;22.37;;
18084;SDS011;9169;44.492;11.372;2023-03-03T04:14:05;30.10;;;22.60;;
18084;SDS011;9169;44.492;11.372;2023-03-03T04:16:36;29.73;;;21.90;;
18084;SDS011;9169;44.492;11.372;2023-03-03T04:19:05;28.50;;;21.63;;
18084;SDS011;9169;44.492;11.372;2023-03-03T04:21:36;26.80;;;20.77;;
18084;SDS011;9169;44.492;11.372;2023-03-03T04:24:06;26.90;;;20.83;;
18084;SDS011;9169;44.492;11.372;2023-03-03T04:26:36;25.83;;;21.00;;
18084;SDS011;9169;44.492;11.372;2023-03-03T04:29:05;24.60;;;20.63;;
18084;SDS011;9169;44.492;11.372;2023-03-03T04:31:33;26.63;;;19.87;;
18084;SDS011;9169;44.492;11.372;2023-03-03T04:34:06;25.57;;;19.83;;
18084;SDS011;9169;44.492;11.372;2023-03-03T04:36:35;26.73;;;20.13;;
18084;SDS011;9169;44.492;11.372;2023-03-03T04:39:03;26.60;;;19.37;;
18084;SDS011;9169;44.492;11.372;2023-03-03T04:41:32;27.80;;;19.50;;
18084;SDS011;9169;44.492;11.372;2023-03-03T04:44:00;28.63;;;20.40;;
18084;SDS011;9169;44.492;11.372;2023-03-03T04:46:29;26.30;;;21.40;;
18084;SDS011;9169;44.492;11.372;2023-03-03T04:48:58;26.70;;;20.20;;
18084;SDS011;9169;44.492;11.372;2023-03-03T04:51:27;28.23;;;20.60;;
18084;SDS011;9169;44.492;11.372;2023-03-03T04:53:56;24.07;;;19.90;;
18084;SDS011;9169;44.492;11.372;2023-03-03T04:56:24;28.60;;;19.70;;
18084;SDS011;9169;44.492;11.372;2023-03-03T04:58:52;30.47;;;20.50;;
18084;SDS011;9169;44.492;11.372;2023-03-03T05:01:20;26.50;;;20.33;;
18084;SDS011;9169;44.492;11.372;2023-03-03T05:03:49;25.93;;;20.20;;
18084;SDS011;9169;44.492;11.372;2023-03-03T05:06:18;25.47;;;19.40;;
18084;SDS011;9169;44.492;11.372;2023-03-03T05:08:47;27.77;;;20.67;;
18084;SDS011;9169;44.492;11.372;2023-03-03T05:11:15;29.40;;;20.13;;
18084;SDS011;9169;44.492;11.372;2023-03-03T05:13:44;33.10;;;21.53;;
18084;SDS011;9169;44.492;11.372;2023-03-03T05:16:12;28.07;;;19.83;;
18084;SDS011;9169;44.492;11.372;2023-03-03T05:18:40;33.20;;;20.60;;
18084;SDS011;9169;44.492;11.372;2023-03-03T05:21:09;26.63;;;20.43;;
18084;SDS011;9169;44.492;11.372;2023-03-03T05:23:39;32.03;;;21.60;;
18084;SDS011;9169;44.492;11.372;2023-03-03T05:26:07;35.33;;;20.80;;
18084;SDS011;9169;44.492;11.372;2023-03-03T05:28:35;29.17;;;19.77;;
18084;SDS011;9169;44.492;11.372;2023-03-03T05:31:04;30.10;;;21.03;;
18084;SDS011;9169;44.492;11.372;2023-03-03T05:33:32;28.70;;;19.57;;
18084;SDS011;9169;44.492;11.372;2023-03-03T05:36:00;30.07;;;20.60;;
18084;SDS011;9169;44.492;11.372;2023-03-03T05:38:29;27.03;;;20.83;;
18084;SDS011;9169;44.492;11.372;2023-03-03T05:40:58;27.67;;;20.27;;
18084;SDS011;9169;44.492;11.372;2023-03-03T05:43:27;28.40;;;21.70;;
18084;SDS011;9169;44.492;11.372;2023-03-03T05:45:57;25.87;;;18.73;;
18084;SDS011;9169;44.492;11.372;2023-03-03T05:48:26;28.33;;;20.70;;
18084;SDS011;9169;44.492;11.372;2023-03-03T05:50:56;28.70;;;22.07;;
18084;SDS011;9169;44.492;11.372;2023-03-03T05:53:26;30.60;;;21.47;;
18084;SDS011;9169;44.492;11.372;2023-03-03T05:55:54;28.77;;;21.40;;
18084;SDS011;9169;44.492;11.372;2023-03-03T05:58:24;36.30;;;21.10;;
18084;SDS011;9169;44.492;11.372;2023-03-03T06:00:53;25.60;;;20.03;;
18084;SDS011;9169;44.492;11.372;2023-03-03T06:03:21;26.23;;;21.33;;
18084;SDS011;9169;44.492;11.372;2023-03-03T06:05:49;29.47;;;21.47;;
18084;SDS011;9169;44.492;11.372;2023-03-03T06:08:18;29.67;;;21.63;;
18084;SDS011;9169;44.492;11.372;2023-03-03T06:10:46;28.23;;;20.50;;
18084;SDS011;9169;44.492;11.372;2023-03-03T06:13:15;28.90;;;21.07;;
18084;SDS011;9169;44.492;11.372;2023-03-03T06:15:44;24.83;;;19.77;;
18084;SDS011;9169;44.492;11.372;2023-03-03T06:18:13;32.93;;;22.33;;
18084;SDS011;9169;44.492;11.372;2023-03-03T06:20:41;30.63;;;21.63;;
18084;SDS011;9169;44.492;11.372;2023-03-03T06:23:10;27.70;;;20.90;;
18084;SDS011;9169;44.492;11.372;2023-03-03T06:25:38;25.03;;;19.70;;
18084;SDS011;9169;44.492;11.372;2023-03-03T06:28:06;29.07;;;21.70;;
18084;SDS011;9169;44.492;11.372;2023-03-03T06:30:34;27.63;;;21.07;;
18084;SDS011;9169;44.492;11.372;2023-03-03T06:33:04;25.63;;;20.60;;
18084;SDS011;9169;44.492;11.372;2023-03-03T06:35:33;27.33;;;20.03;;
18084;SDS011;9169;44.492;11.372;2023-03-03T06:38:01;33.90;;;20.30;;
18084;SDS011;9169;44.492;11.372;2023-03-03T06:40:30;27.30;;;19.77;;
18084;SDS011;9169;44.492;11.372;2023-03-03T06:42:58;29.90;;;21.20;;
18084;SDS011;9169;44.492;11.372;2023-03-03T06:45:27;26.60;;;19.90;;
18084;SDS011;9169;44.492;11.372;2023-03-03T06:47:56;28.87;;;19.40;;
18084;SDS011;9169;44.492;11.372;2023-03-03T06:50:25;27.83;;;20.40;;
18084;SDS011;9169;44.492;11.372;2023-03-03T06:52:57;26.47;;;19.70;;
18084;SDS011;9169;44.492;11.372;2023-03-03T06:55:29;23.90;;;18.53;;
18084;SDS011;9169;44.492;11.372;2023-03-03T06:57:58;27.40;;;21.03;;
18084;SDS011;9169;44.492;11.372;2023-03-03T07:00:28;27.23;;;19.93;;
18084;SDS011;9169;44.492;11.372;2023-03-03T07:02:57;26.90;;;19.50;;
18084;SDS011;9169;44.492;11.372;2023-03-03T07:05:29;32.17;;;19.97;;
18084;SDS011;9169;44.492;11.372;2023-03-03T07:07:58;32.57;;;19.23;;
18084;SDS011;9169;44.492;11.372;2023-03-03T07:10:27;26.60;;;18.87;;
18084;SDS011;9169;44.492;11.372;2023-03-03T07:12:59;29.77;;;20.50;;
18084;SDS011;9169;44.492;11.372;2023-03-03T07:15:42;23.47;;;18.40;;
18084;SDS011;9169;44.492;11.372;2023-03-03T07:18:24;26.03;;;18.37;;
18084;SDS011;9169;44.492;11.372;2023-03-03T07:21:04;31.20;;;18.70;;
18084;SDS011;9169;44.492;11.372;2023-03-03T07:23:40;30.30;;;19.33;;
18084;SDS011;9169;44.492;11.372;2023-03-03T07:26:10;30.33;;;18.77;;
18084;SDS011;9169;44.492;11.372;2023-03-03T07:28:40;24.63;;;19.67;;
18084;SDS011;9169;44.492;11.372;2023-03-03T07:33:58;28.93;;;19.43;;
18084;SDS011;9169;44.492;11.372;2023-03-03T07:36:30;26.77;;;18.57;;
18084;SDS011;9169;44.492;11.372;2023-03-03T07:39:03;24.83;;;19.20;;
18084;SDS011;9169;44.492;11.372;2023-03-03T07:41:47;26.93;;;19.13;;
18084;SDS011;9169;44.492;11.372;2023-03-03T07:44:18;28.90;;;19.30;;
18084;SDS011;9169;44.492;11.372;2023-03-03T07:46:49;26.80;;;19.10;;
18084;SDS011;9169;44.492;11.372;2023-03-03T07:49:21;33.80;;;18.37;;
18084;SDS011;9169;44.492;11.372;2023-03-03T07:51:53;30.30;;;20.80;;
18084;SDS011;9169;44.492;11.372;2023-03-03T07:54:26;26.70;;;19.80;;
18084;SDS011;9169;44.492;11.372;2023-03-03T07:57:00;27.33;;;18.20;;
18084;SDS011;9169;44.492;11.372;2023-03-03T07:59:33;35.33;;;19.50;;
18084;SDS011;9169;44.492;11.372;2023-03-03T08:02:03;29.40;;;19.90;;
18084;SDS011;9169;44.492;11.372;2023-03-03T08:04:45;29.80;;;20.80;;
18084;SDS011;9169;44.492;11.372;2023-03-03T08:07:18;27.43;;;20.40;;
18084;SDS011;9169;44.492;11.372;2023-03-03T08:09:48;26.00;;;19.90;;
18084;SDS011;9169;44.492;11.372;2023-03-03T08:12:33;26.90;;;20.70;;
18084;SDS011;9169;44.492;11.372;2023-03-03T08:17:57;24.50;;;20.30;;
18084;SDS011;9169;44.492;11.372;2023-03-03T08:20:37;29.43;;;20.37;;
18084;SDS011;9169;44.492;11.372;2023-03-03T08:23:12;28.90;;;22.40;;
18084;SDS011;9169;44.492;11.372;2023-03-03T08:25:42;27.00;;;19.93;;
18084;SDS011;9169;44.492;11.372;2023-03-03T08:28:11;25.97;;;20.40;;
18084;SDS011;9169;44.492;11.372;2023-03-03T08:30:40;27.40;;;20.50;;
18084;SDS011;9169;44.492;11.372;2023-03-03T08:33:09;25.07;;;19.93;;
18084;SDS011;9169;44.492;11.372;2023-03-03T08:35:38;27.80;;;21.20;;
18084;SDS011;9169;44.492;11.372;2023-03-03T08:38:07;26.93;;;19.90;;
18084;SDS011;9169;44.492;11.372;2023-03-03T08:40:37;30.27;;;20.83;;
18084;SDS011;9169;44.492;11.372;2023-03-03T08:43:06;25.03;;;20.47;;
18084;SDS011;9169;44.492;11.372;2023-03-03T08:45:34;26.63;;;20.37;;
18084;SDS011;9169;44.492;11.372;2023-03-03T08:48:03;30.43;;;21.23;;
18084;SDS011;9169;44.492;11.372;2023-03-03T08:50:32;29.77;;;21.73;;
18084;SDS011;9169;44.492;11.372;2023-03-03T08:53:00;27.63;;;21.23;;
18084;SDS011;9169;44.492;11.372;2023-03-03T08:55:28;29.37;;;22.93;;
18084;SDS011;9169;44.492;11.372;2023-03-03T08:57:58;28.87;;;22.63;;
18084;SDS011;9169;44.492;11.372;2023-03-03T09:00:27;26.90;;;22.00;;
18084;SDS011;9169;44.492;11.372;2023-03-03T09:02:55;29.90;;;21.93;;
18084;SDS011;9169;44.492;11.372;2023-03-03T09:05:24;31.93;;;22.70;;
18084;SDS011;9169;44.492;11.372;2023-03-03T09:07:53;26.90;;;19.97;;
18084;SDS011;9169;44.492;11.372;2023-03-03T09:10:23;27.80;;;22.27;;
18084;SDS011;9169;44.492;11.372;2023-03-03T09:12:56;29.00;;;22.17;;
18084;SDS011;9169;44.492;11.372;2023-03-03T09:15:29;29.00;;;21.90;;
18084;SDS011;9169;44.492;11.372;2023-03-03T09:18:00;28.63;;;22.87;;
18084;SDS011;9169;44.492;11.372;2023-03-03T09:20:37;30.10;;;21.60;;
18084;SDS011;9169;44.492;11.372;2023-03-03T09:26:23;29.00;;;23.77;;
18084;SDS011;9169;44.492;11.372;2023-03-03T09:28:57;29.30;;;23.00;;
18084;SDS011;9169;44.492;11.372;2023-03-03T09:31:35;29.70;;;23.67;;
18084;SDS011;9169;44.492;11.372;2023-03-03T09:34:19;29.17;;;24.00;;
18084;SDS011;9169;44.492;11.372;2023-03-03T09:36:49;29.87;;;24.00;;
18084;SDS011;9169;44.492;11.372;2023-03-03T09:39:19;32.63;;;24.13;;
18084;SDS011;9169;44.492;11.372;2023-03-03T09:41:57;36.60;;;24.83;;
18084;SDS011;9169;44.492;11.372;2023-03-03T09:47:52;30.87;;;25.90;;
18084;SDS011;9169;44.492;11.372;2023-03-03T09:50:33;31.97;;;26.97;;
18084;SDS011;9169;44.492;11.372;2023-03-03T09:53:14;35.30;;;29.33;;
18084;SDS011;9169;44.492;11.372;2023-03-03T09:55:53;34.60;;;29.67;;
18084;SDS011;9169;44.492;11.372;2023-03-03T09:58:33;39.77;;;32.10;;
18084;SDS011;9169;44.492;11.372;2023-03-03T10:01:18;36.83;;;30.30;;
18084;SDS011;9169;44.492;11.372;2023-03-03T10:04:19;34.23;;;29.10;;
18084;SDS011;9169;44.492;11.372;2023-03-03T10:07:09;38.83;;;29.77;;
18084;SDS011;9169;44.492;11.372;2023-03-03T10:10:02;39.47;;;30.10;;
18084;SDS011;9169;44.492;11.372;2023-03-03T10:12:44;35.03;;;28.43;;
18084;SDS011;9169;44.492;11.372;2023-03-03T10:15:22;34.93;;;29.60;;
18084;SDS011;9169;44.492;11.372;2023-03-03T10:18:02;42.10;;;30.87;;
18084;SDS011;9169;44.492;11.372;2023-03-03T10:20:44;40.03;;;31.17;;
18084;SDS011;9169;44.492;11.372;2023-03-03T10:23:21;38.63;;;30.57;;
18084;SDS011;9169;44.492;11.372;2023-03-03T10:26:02;36.60;;;31.10;;
18084;SDS011;9169;44.492;11.372;2023-03-03T10:29:01;35.70;;;30.30;;
18084;SDS011;9169;44.492;11.372;2023-03-03T10:31:41;37.27;;;29.70;;
18084;SDS011;9169;44.492;11.372;2023-03-03T10:34:23;36.83;;;31.53;;
18084;SDS011;9169;44.492;11.372;2023-03-03T10:37:23;32.93;;;28.57;;
18084;SDS011;9169;44.492;11.372;2023-03-03T10:40:00;35.13;;;30.77;;
18084;SDS011;9169;44.492;11.372;2023-03-03T10:42:45;33.13;;;27.37;;
18084;SDS011;9169;44.492;11.372;2023-03-03T10:45:31;28.20;;;25.10;;
18084;SDS011;9169;44.492;11.372;2023-03-03T10:51:25;27.50;;;24.57;;
18084;SDS011;9169;44.492;11.372;2023-03-03T10:54:01;35.53;;;27.07;;
18084;SDS011;9169;44.492;11.372;2023-03-03T10:56:42;32.33;;;27.23;;
18084;SDS011;9169;44.492;11.372;2023-03-03T11:02:12;34.40;;;26.53;;
18084;SDS011;9169;44.492;11.372;2023-03-03T11:05:03;31.23;;;24.80;;
18084;SDS011;9169;44.492;11.372;2023-03-03T11:07:50;24.23;;;21.70;;
18084;SDS011;9169;44.492;11.372;2023-03-03T11:10:23;25.50;;;22.00;;
18084;SDS011;9169;44.492;11.372;2023-03-03T11:13:02;28.90;;;23.10;;
18084;SDS011;9169;44.492;11.372;2023-03-03T11:15:40;26.33;;;18.53;;
18084;SDS011;9169;44.492;11.372;2023-03-03T11:18:22;24.13;;;18.70;;
18084;SDS011;9169;44.492;11.372;2023-03-03T11:21:00;25.93;;;22.00;;
18084;SDS011;9169;44.492;11.372;2023-03-03T11:23:41;28.60;;;22.27;;
18084;SDS011;9169;44.492;11.372;2023-03-03T11:26:28;32.30;;;23.60;;
18084;SDS011;9169;44.492;11.372;2023-03-03T11:29:13;28.50;;;21.80;;
18084;SDS011;9169;44.492;11.372;2023-03-03T11:31:56;22.80;;;17.27;;
18084;SDS011;9169;44.492;11.372;2023-03-03T11:34:48;25.00;;;20.33;;
18084;SDS011;9169;44.492;11.372;2023-03-03T11:37:25;30.30;;;20.10;;
18084;SDS011;9169;44.492;11.372;2023-03-03T11:40:09;28.10;;;20.20;;
18084;SDS011;9169;44.492;11.372;2023-03-03T11:42:44;22.87;;;18.00;;
18084;SDS011;9169;44.492;11.372;2023-03-03T11:45:21;23.93;;;18.97;;
18084;SDS011;9169;44.492;11.372;2023-03-03T11:47:56;22.37;;;17.60;;
18084;SDS011;9169;44.492;11.372;2023-03-03T11:50:28;24.50;;;19.13;;
18084;SDS011;9169;44.492;11.372;2023-03-03T11:53:05;21.90;;;17.13;;
18084;SDS011;9169;44.492;11.372;2023-03-03T11:55:47;18.70;;;12.57;;
18084;SDS011;9169;44.492;11.372;2023-03-03T11:58:19;24.73;;;14.87;;
18084;SDS011;9169;44.492;11.372;2023-03-03T12:00:53;22.13;;;14.93;;
18084;SDS011;9169;44.492;11.372;2023-03-03T12:03:29;17.97;;;14.90;;
18084;SDS011;9169;44.492;11.372;2023-03-03T12:06:04;18.67;;;14.00;;
18084;SDS011;9169;44.492;11.372;2023-03-03T12:08:43;20.70;;;14.80;;
18084;SDS011;9169;44.492;11.372;2023-03-03T12:11:27;17.27;;;13.77;;
18084;SDS011;9169;44.492;11.372;2023-03-03T12:14:04;16.67;;;14.73;;
18084;SDS011;9169;44.492;11.372;2023-03-03T12:16:44;23.63;;;15.17;;
18084;SDS011;9169;44.492;11.372;2023-03-03T12:19:22;20.47;;;15.13;;
18084;SDS011;9169;44.492;11.372;2023-03-03T12:22:10;24.83;;;15.93;;
18084;SDS011;9169;44.492;11.372;2023-03-03T12:24:53;20.37;;;15.70;;
18084;SDS011;9169;44.492;11.372;2023-03-03T12:27:39;22.97;;;16.60;;
18084;SDS011;9169;44.492;11.372;2023-03-03T12:30:18;19.73;;;16.17;;
18084;SDS011;9169;44.492;11.372;2023-03-03T12:32:58;22.97;;;16.80;;
18084;SDS011;9169;44.492;11.372;2023-03-03T12:35:44;21.53;;;16.30;;
18084;SDS011;9169;44.492;11.372;2023-03-03T12:38:21;20.10;;;15.90;;
18084;SDS011;9169;44.492;11.372;2023-03-03T12:40:57;18.90;;;14.83;;
18084;SDS011;9169;44.492;11.372;2023-03-03T12:43:37;18.90;;;15.17;;
18084;SDS011;9169;44.492;11.372;2023-03-03T12:46:16;21.80;;;15.20;;
18084;SDS011;9169;44.492;11.372;2023-03-03T12:48:54;18.70;;;15.53;;
18084;SDS011;9169;44.492;11.372;2023-03-03T12:51:30;19.93;;;15.63;;
18084;SDS011;9169;44.492;11.372;2023-03-03T12:54:10;18.80;;;15.47;;
18084;SDS011;9169;44.492;11.372;2023-03-03T12:56:54;17.57;;;15.40;;
18084;SDS011;9169;44.492;11.372;2023-03-03T12:59:32;21.30;;;14.17;;
18084;SDS011;9169;44.492;11.372;2023-03-03T13:02:16;16.23;;;13.43;;
18084;SDS011;9169;44.492;11.372;2023-03-03T13:04:56;16.03;;;13.70;;
18084;SDS011;9169;44.492;11.372;2023-03-03T13:07:33;19.27;;;14.70;;
18084;SDS011;9169;44.492;11.372;2023-03-03T13:10:11;20.73;;;13.87;;
18084;SDS011;9169;44.492;11.372;2023-03-03T13:12:46;19.10;;;14.27;;
18084;SDS011;9169;44.492;11.372;2023-03-03T13:15:21;19.73;;;14.07;;
18084;SDS011;9169;44.492;11.372;2023-03-03T13:17:59;18.83;;;13.83;;
18084;SDS011;9169;44.492;11.372;2023-03-03T13:20:54;18.20;;;13.13;;
18084;SDS011;9169;44.492;11.372;2023-03-03T13:23:30;17.10;;;14.40;;
18084;SDS011;9169;44.492;11.372;2023-03-03T13:26:09;20.30;;;15.50;;
18084;SDS011;9169;44.492;11.372;2023-03-03T13:28:46;19.40;;;14.77;;
18084;SDS011;9169;44.492;11.372;2023-03-03T13:31:28;19.93;;;14.87;;
18084;SDS011;9169;44.492;11.372;2023-03-03T13:34:00;20.63;;;13.20;;
18084;SDS011;9169;44.492;11.372;2023-03-03T13:36:30;18.23;;;13.60;;
18084;SDS011;9169;44.492;11.372;2023-03-03T13:39:07;17.60;;;12.60;;
18084;SDS011;9169;44.492;11.372;2023-03-03T13:41:44;16.00;;;14.30;;
18084;SDS011;9169;44.492;11.372;2023-03-03T13:44:18;17.07;;;12.03;;
18084;SDS011;9169;44.492;11.372;2023-03-03T13:46:55;13.17;;;10.40;;
18084;SDS011;9169;44.492;11.372;2023-03-03T13:49:35;15.40;;;12.43;;
18084;SDS011;9169;44.492;11.372;2023-03-03T13:52:14;14.33;;;12.90;;
18084;SDS011;9169;44.492;11.372;2023-03-03T13:55:09;14.37;;;12.03;;
18084;SDS011;9169;44.492;11.372;2023-03-03T13:57:50;15.53;;;11.73;;
18084;SDS011;9169;44.492;11.372;2023-03-03T14:00:29;12.87;;;11.10;;
18084;SDS011;9169;44.492;11.372;2023-03-03T14:06:08;18.23;;;11.00;;
18084;SDS011;9169;44.492;11.372;2023-03-03T14:08:43;15.07;;;10.70;;
18084;SDS011;9169;44.492;11.372;2023-03-03T14:11:22;15.57;;;11.50;;
18084;SDS011;9169;44.492;11.372;2023-03-03T14:13:58;15.73;;;11.30;;
18084;SDS011;9169;44.492;11.372;2023-03-03T14:16:39;15.00;;;11.23;;
18084;SDS011;9169;44.492;11.372;2023-03-03T14:19:18;13.20;;;9.70;;
18084;SDS011;9169;44.492;11.372;2023-03-03T14:21:56;13.43;;;10.87;;
18084;SDS011;9169;44.492;11.372;2023-03-03T14:24:32;15.97;;;10.90;;
18084;SDS011;9169;44.492;11.372;2023-03-03T14:27:24;13.57;;;11.17;;
18084;SDS011;9169;44.492;11.372;2023-03-03T14:29:54;18.20;;;11.80;;
18084;SDS011;9169;44.492;11.372;2023-03-03T14:32:23;18.37;;;12.60;;
18084;SDS011;9169;44.492;11.372;2023-03-03T14:35:14;16.63;;;12.13;;
18084;SDS011;9169;44.492;11.372;2023-03-03T14:37:46;18.33;;;12.63;;
18084;SDS011;9169;44.492;11.372;2023-03-03T14:40:18;16.60;;;12.30;;
18084;SDS011;9169;44.492;11.372;2023-03-03T14:42:48;14.53;;;12.10;;
18084;SDS011;9169;44.492;11.372;2023-03-03T14:45:28;13.23;;;11.83;;
18084;SDS011;9169;44.492;11.372;2023-03-03T14:47:59;15.43;;;11.60;;
18084;SDS011;9169;44.492;11.372;2023-03-03T14:50:39;17.27;;;11.50;;
18084;SDS011;9169;44.492;11.372;2023-03-03T14:53:13;13.83;;;10.87;;
18084;SDS011;9169;44.492;11.372;2023-03-03T14:55:48;17.03;;;11.00;;
18084;SDS011;9169;44.492;11.372;2023-03-03T14:58:25;24.83;;;11.30;;
18084;SDS011;9169;44.492;11.372;2023-03-03T15:03:44;17.07;;;10.53;;
18084;SDS011;9169;44.492;11.372;2023-03-03T15:06:29;14.83;;;11.17;;
18084;SDS011;9169;44.492;11.372;2023-03-03T15:09:23;11.97;;;9.83;;
18084;SDS011;9169;44.492;11.372;2023-03-03T15:12:16;14.40;;;11.30;;
18084;SDS011;9169;44.492;11.372;2023-03-03T15:14:48;12.23;;;10.50;;
18084;SDS011;9169;44.492;11.372;2023-03-03T15:17:24;14.43;;;11.30;;
18084;SDS011;9169;44.492;11.372;2023-03-03T15:20:08;12.90;;;9.13;;
18084;SDS011;9169;44.492;11.372;2023-03-03T15:22:50;13.03;;;10.47;;
18084;SDS011;9169;44.492;11.372;2023-03-03T15:25:25;13.37;;;9.47;;
18084;SDS011;9169;44.492;11.372;2023-03-03T15:28:23;14.67;;;10.63;;